sensor_id;sensor_type;location;lat;lon;timestamp;P1;durP1;ratioP1;P2;durP2;ratioP2
24229;SDS011;12362;50.004;8.006;2023-02-17T00:01:21;6.53;;;1.90;;
24229;SDS011;12362;50.004;8.006;2023-02-17T00:03:49;6.90;;;2.07;;
24229;SDS011;12362;50.004;8.006;2023-02-17T00:06:16;3.67;;;1.80;;
24229;SDS011;12362;50.004;8.006;2023-02-17T00:08:43;5.77;;;2.00;;
24229;SDS011;12362;50.004;8.006;2023-02-17T00:11:09;8.93;;;2.70;;
24229;SDS011;12362;50.004;8.006;2023-02-17T00:13:35;5.60;;;2.27;;
24229;SDS011;12362;50.004;8.006;2023-02-17T00:16:08;3.60;;;1.93;;
24229;SDS011;12362;50.004;8.006;2023-02-17T00:18:35;2.53;;;1.83;;
24229;SDS011;12362;50.004;8.006;2023-02-17T00:21:15;3.40;;;1.93;;
24229;SDS011;12362;50.004;8.006;2023-02-17T00:23:42;9.10;;;2.33;;
24229;SDS011;12362;50.004;8.006;2023-02-17T00:26:08;11.90;;;2.93;;
24229;SDS011;12362;50.004;8.006;2023-02-17T00:28:34;3.90;;;1.87;;
24229;SDS011;12362;50.004;8.006;2023-02-17T00:31:04;4.80;;;1.97;;
24229;SDS011;12362;50.004;8.006;2023-02-17T00:33:32;4.67;;;1.97;;
24229;SDS011;12362;50.004;8.006;2023-02-17T00:35:57;9.07;;;2.93;;
24229;SDS011;12362;50.004;8.006;2023-02-17T00:38:23;3.57;;;1.50;;
24229;SDS011;12362;50.004;8.006;2023-02-17T00:40:48;7.90;;;2.90;;
24229;SDS011;12362;50.004;8.006;2023-02-17T00:43:14;6.60;;;2.10;;
24229;SDS011;12362;50.004;8.006;2023-02-17T00:45:39;6.30;;;2.00;;
24229;SDS011;12362;50.004;8.006;2023-02-17T00:48:05;5.60;;;2.40;;
24229;SDS011;12362;50.004;8.006;2023-02-17T00:50:30;3.53;;;2.03;;
24229;SDS011;12362;50.004;8.006;2023-02-17T00:52:56;6.87;;;1.63;;
24229;SDS011;12362;50.004;8.006;2023-02-17T00:55:21;2.27;;;2.00;;
24229;SDS011;12362;50.004;8.006;2023-02-17T00:57:47;6.83;;;2.20;;
24229;SDS011;12362;50.004;8.006;2023-02-17T01:00:12;2.70;;;1.50;;
24229;SDS011;12362;50.004;8.006;2023-02-17T01:02:39;2.03;;;1.43;;
24229;SDS011;12362;50.004;8.006;2023-02-17T01:05:04;4.20;;;1.60;;
24229;SDS011;12362;50.004;8.006;2023-02-17T01:07:30;3.07;;;1.97;;
24229;SDS011;12362;50.004;8.006;2023-02-17T01:09:56;7.03;;;2.30;;
24229;SDS011;12362;50.004;8.006;2023-02-17T01:12:21;6.63;;;2.73;;
24229;SDS011;12362;50.004;8.006;2023-02-17T01:14:47;7.43;;;1.60;;
24229;SDS011;12362;50.004;8.006;2023-02-17T01:17:12;6.40;;;1.83;;
24229;SDS011;12362;50.004;8.006;2023-02-17T01:19:38;3.90;;;1.77;;
24229;SDS011;12362;50.004;8.006;2023-02-17T01:22:03;1.73;;;1.07;;
24229;SDS011;12362;50.004;8.006;2023-02-17T01:24:29;7.27;;;2.73;;
24229;SDS011;12362;50.004;8.006;2023-02-17T01:26:54;7.70;;;2.50;;
24229;SDS011;12362;50.004;8.006;2023-02-17T01:29:20;4.60;;;1.70;;
24229;SDS011;12362;50.004;8.006;2023-02-17T01:31:45;3.07;;;1.90;;
24229;SDS011;12362;50.004;8.006;2023-02-17T01:34:11;4.20;;;1.87;;
24229;SDS011;12362;50.004;8.006;2023-02-17T01:36:43;4.13;;;1.57;;
24229;SDS011;12362;50.004;8.006;2023-02-17T01:39:10;7.13;;;2.03;;
24229;SDS011;12362;50.004;8.006;2023-02-17T01:41:38;5.23;;;2.20;;
24229;SDS011;12362;50.004;8.006;2023-02-17T01:44:17;3.50;;;1.97;;
24229;SDS011;12362;50.004;8.006;2023-02-17T01:46:48;3.43;;;1.83;;
24229;SDS011;12362;50.004;8.006;2023-02-17T01:49:26;3.10;;;1.57;;
24229;SDS011;12362;50.004;8.006;2023-02-17T01:54:37;5.37;;;2.73;;
24229;SDS011;12362;50.004;8.006;2023-02-17T01:57:10;4.27;;;1.87;;
24229;SDS011;12362;50.004;8.006;2023-02-17T01:59:39;12.90;;;2.20;;
24229;SDS011;12362;50.004;8.006;2023-02-17T02:02:05;6.43;;;1.87;;
24229;SDS011;12362;50.004;8.006;2023-02-17T02:04:48;6.30;;;2.70;;
24229;SDS011;12362;50.004;8.006;2023-02-17T02:07:22;7.77;;;2.00;;
24229;SDS011;12362;50.004;8.006;2023-02-17T02:09:53;4.17;;;3.20;;
24229;SDS011;12362;50.004;8.006;2023-02-17T02:14:55;6.97;;;1.97;;
24229;SDS011;12362;50.004;8.006;2023-02-17T02:33:56;5.40;;;1.83;;
24229;SDS011;12362;50.004;8.006;2023-02-17T02:36:28;5.37;;;1.97;;
24229;SDS011;12362;50.004;8.006;2023-02-17T02:41:35;6.93;;;1.73;;
24229;SDS011;12362;50.004;8.006;2023-02-17T02:44:05;2.60;;;2.00;;
24229;SDS011;12362;50.004;8.006;2023-02-17T02:46:33;2.03;;;1.07;;
24229;SDS011;12362;50.004;8.006;2023-02-17T02:48:59;4.17;;;1.83;;
24229;SDS011;12362;50.004;8.006;2023-02-17T02:54:24;5.00;;;2.13;;
24229;SDS011;12362;50.004;8.006;2023-02-17T02:57:23;3.77;;;2.10;;
24229;SDS011;12362;50.004;8.006;2023-02-17T03:08:11;1.93;;;1.47;;
24229;SDS011;12362;50.004;8.006;2023-02-17T03:10:45;3.30;;;1.47;;
24229;SDS011;12362;50.004;8.006;2023-02-17T03:13:14;3.00;;;1.70;;
24229;SDS011;12362;50.004;8.006;2023-02-17T03:15:43;3.40;;;1.73;;
24229;SDS011;12362;50.004;8.006;2023-02-17T03:18:09;5.87;;;2.17;;
24229;SDS011;12362;50.004;8.006;2023-02-17T03:20:36;7.13;;;3.00;;
24229;SDS011;12362;50.004;8.006;2023-02-17T03:23:07;10.67;;;2.00;;
24229;SDS011;12362;50.004;8.006;2023-02-17T03:25:33;5.40;;;2.03;;
24229;SDS011;12362;50.004;8.006;2023-02-17T03:27:59;7.10;;;2.60;;
24229;SDS011;12362;50.004;8.006;2023-02-17T03:30:25;5.70;;;1.80;;
24229;SDS011;12362;50.004;8.006;2023-02-17T03:32:50;2.40;;;1.60;;
24229;SDS011;12362;50.004;8.006;2023-02-17T03:35:16;7.40;;;2.33;;
24229;SDS011;12362;50.004;8.006;2023-02-17T03:37:41;4.60;;;2.20;;
24229;SDS011;12362;50.004;8.006;2023-02-17T03:40:07;5.77;;;2.07;;
24229;SDS011;12362;50.004;8.006;2023-02-17T03:42:33;1.90;;;1.63;;
24229;SDS011;12362;50.004;8.006;2023-02-17T03:44:58;2.60;;;1.50;;
24229;SDS011;12362;50.004;8.006;2023-02-17T03:47:26;5.13;;;1.87;;
24229;SDS011;12362;50.004;8.006;2023-02-17T03:49:51;6.17;;;2.27;;
24229;SDS011;12362;50.004;8.006;2023-02-17T03:52:17;6.47;;;1.80;;
24229;SDS011;12362;50.004;8.006;2023-02-17T03:54:43;3.90;;;2.37;;
24229;SDS011;12362;50.004;8.006;2023-02-17T03:57:08;0.80;;;0.67;;
24229;SDS011;12362;50.004;8.006;2023-02-17T03:59:34;2.70;;;1.23;;
24229;SDS011;12362;50.004;8.006;2023-02-17T04:02:00;1.87;;;1.33;;
24229;SDS011;12362;50.004;8.006;2023-02-17T04:04:26;1.97;;;0.90;;
24229;SDS011;12362;50.004;8.006;2023-02-17T04:06:51;1.27;;;0.97;;
24229;SDS011;12362;50.004;8.006;2023-02-17T04:09:17;6.47;;;1.00;;
24229;SDS011;12362;50.004;8.006;2023-02-17T04:11:43;1.57;;;0.70;;
24229;SDS011;12362;50.004;8.006;2023-02-17T04:14:08;0.87;;;0.83;;
24229;SDS011;12362;50.004;8.006;2023-02-17T04:16:34;0.63;;;0.50;;
24229;SDS011;12362;50.004;8.006;2023-02-17T04:19:03;1.00;;;0.50;;
24229;SDS011;12362;50.004;8.006;2023-02-17T04:21:29;1.40;;;0.93;;
24229;SDS011;12362;50.004;8.006;2023-02-17T04:23:55;1.23;;;0.63;;
24229;SDS011;12362;50.004;8.006;2023-02-17T04:26:21;1.97;;;0.60;;
24229;SDS011;12362;50.004;8.006;2023-02-17T04:28:47;2.17;;;0.97;;
24229;SDS011;12362;50.004;8.006;2023-02-17T04:31:12;3.77;;;1.63;;
24229;SDS011;12362;50.004;8.006;2023-02-17T04:33:38;2.33;;;0.80;;
24229;SDS011;12362;50.004;8.006;2023-02-17T04:36:03;2.47;;;1.50;;
24229;SDS011;12362;50.004;8.006;2023-02-17T04:38:30;4.23;;;1.83;;
24229;SDS011;12362;50.004;8.006;2023-02-17T04:40:57;5.70;;;1.63;;
24229;SDS011;12362;50.004;8.006;2023-02-17T04:43:24;1.00;;;0.63;;
24229;SDS011;12362;50.004;8.006;2023-02-17T04:45:50;1.83;;;1.20;;
24229;SDS011;12362;50.004;8.006;2023-02-17T04:48:16;2.50;;;1.10;;
24229;SDS011;12362;50.004;8.006;2023-02-17T04:50:42;14.50;;;1.93;;
24229;SDS011;12362;50.004;8.006;2023-02-17T04:53:08;1.67;;;0.93;;
24229;SDS011;12362;50.004;8.006;2023-02-17T04:55:33;0.82;;;0.73;;
24229;SDS011;12362;50.004;8.006;2023-02-17T04:57:59;7.50;;;2.20;;
24229;SDS011;12362;50.004;8.006;2023-02-17T05:00:26;6.87;;;2.20;;
24229;SDS011;12362;50.004;8.006;2023-02-17T05:02:51;13.10;;;3.07;;
24229;SDS011;12362;50.004;8.006;2023-02-17T05:05:18;6.78;;;2.28;;
24229;SDS011;12362;50.004;8.006;2023-02-17T05:07:45;2.20;;;1.40;;
24229;SDS011;12362;50.004;8.006;2023-02-17T05:10:11;3.42;;;1.48;;
24229;SDS011;12362;50.004;8.006;2023-02-17T05:12:37;1.03;;;0.70;;
24229;SDS011;12362;50.004;8.006;2023-02-17T05:15:04;0.50;;;0.50;;
24229;SDS011;12362;50.004;8.006;2023-02-17T05:17:31;1.10;;;0.95;;
24229;SDS011;12362;50.004;8.006;2023-02-17T05:19:56;0.40;;;0.40;;
24229;SDS011;12362;50.004;8.006;2023-02-17T05:22:22;1.90;;;0.80;;
24229;SDS011;12362;50.004;8.006;2023-02-17T05:24:48;1.43;;;0.40;;
24229;SDS011;12362;50.004;8.006;2023-02-17T05:27:13;1.90;;;0.70;;
24229;SDS011;12362;50.004;8.006;2023-02-17T05:29:39;5.57;;;1.17;;
24229;SDS011;12362;50.004;8.006;2023-02-17T05:32:05;2.53;;;0.77;;
24229;SDS011;12362;50.004;8.006;2023-02-17T05:34:30;3.27;;;1.10;;
24229;SDS011;12362;50.004;8.006;2023-02-17T05:36:56;0.82;;;0.77;;
24229;SDS011;12362;50.004;8.006;2023-02-17T05:39:22;1.55;;;0.82;;
24229;SDS011;12362;50.004;8.006;2023-02-17T05:41:48;1.08;;;0.45;;
24229;SDS011;12362;50.004;8.006;2023-02-17T05:44:14;0.70;;;0.63;;
24229;SDS011;12362;50.004;8.006;2023-02-17T05:46:40;2.57;;;1.13;;
24229;SDS011;12362;50.004;8.006;2023-02-17T05:49:06;1.65;;;0.63;;
24229;SDS011;12362;50.004;8.006;2023-02-17T05:51:31;1.93;;;0.60;;
24229;SDS011;12362;50.004;8.006;2023-02-17T05:53:57;0.98;;;0.70;;
24229;SDS011;12362;50.004;8.006;2023-02-17T05:56:23;1.77;;;1.03;;
24229;SDS011;12362;50.004;8.006;2023-02-17T05:58:48;3.30;;;0.77;;
24229;SDS011;12362;50.004;8.006;2023-02-17T06:01:14;2.25;;;1.20;;
24229;SDS011;12362;50.004;8.006;2023-02-17T06:03:39;0.77;;;0.73;;
24229;SDS011;12362;50.004;8.006;2023-02-17T06:06:05;1.95;;;0.70;;
24229;SDS011;12362;50.004;8.006;2023-02-17T06:08:31;1.80;;;0.88;;
24229;SDS011;12362;50.004;8.006;2023-02-17T06:10:57;1.07;;;0.40;;
24229;SDS011;12362;50.004;8.006;2023-02-17T06:13:23;2.10;;;0.88;;
24229;SDS011;12362;50.004;8.006;2023-02-17T06:15:49;1.52;;;0.50;;
24229;SDS011;12362;50.004;8.006;2023-02-17T06:18:14;6.77;;;1.03;;
24229;SDS011;12362;50.004;8.006;2023-02-17T06:20:40;0.73;;;0.73;;
24229;SDS011;12362;50.004;8.006;2023-02-17T06:23:06;1.75;;;0.60;;
24229;SDS011;12362;50.004;8.006;2023-02-17T06:25:31;1.85;;;0.90;;
24229;SDS011;12362;50.004;8.006;2023-02-17T06:27:57;0.68;;;0.68;;
24229;SDS011;12362;50.004;8.006;2023-02-17T06:30:22;1.83;;;0.60;;
24229;SDS011;12362;50.004;8.006;2023-02-17T06:32:48;0.52;;;0.38;;
24229;SDS011;12362;50.004;8.006;2023-02-17T06:35:14;0.47;;;0.30;;
24229;SDS011;12362;50.004;8.006;2023-02-17T06:37:43;0.45;;;0.43;;
24229;SDS011;12362;50.004;8.006;2023-02-17T06:40:08;1.02;;;0.50;;
24229;SDS011;12362;50.004;8.006;2023-02-17T06:42:36;1.65;;;0.40;;
24229;SDS011;12362;50.004;8.006;2023-02-17T06:45:01;0.35;;;0.35;;
24229;SDS011;12362;50.004;8.006;2023-02-17T06:47:30;0.85;;;0.52;;
24229;SDS011;12362;50.004;8.006;2023-02-17T06:54:32;0.73;;;0.57;;
24229;SDS011;12362;50.004;8.006;2023-02-17T06:57:11;0.30;;;0.30;;
24229;SDS011;12362;50.004;8.006;2023-02-17T06:59:40;0.75;;;0.50;;
24229;SDS011;12362;50.004;8.006;2023-02-17T07:06:10;1.85;;;0.68;;
24229;SDS011;12362;50.004;8.006;2023-02-17T07:08:35;0.20;;;0.13;;
24229;SDS011;12362;50.004;8.006;2023-02-17T07:11:05;0.30;;;0.22;;
24229;SDS011;12362;50.004;8.006;2023-02-17T07:13:34;0.65;;;0.20;;
24229;SDS011;12362;50.004;8.006;2023-02-17T07:16:03;0.13;;;0.13;;
24229;SDS011;12362;50.004;8.006;2023-02-17T07:18:29;0.20;;;0.20;;
24229;SDS011;12362;50.004;8.006;2023-02-17T07:20:59;0.47;;;0.40;;
24229;SDS011;12362;50.004;8.006;2023-02-17T07:23:25;0.45;;;0.40;;
24229;SDS011;12362;50.004;8.006;2023-02-17T07:29:50;0.52;;;0.50;;
24229;SDS011;12362;50.004;8.006;2023-02-17T07:32:19;0.77;;;0.40;;
24229;SDS011;12362;50.004;8.006;2023-02-17T07:34:52;1.67;;;0.73;;
24229;SDS011;12362;50.004;8.006;2023-02-17T07:40:42;0.30;;;0.30;;
24229;SDS011;12362;50.004;8.006;2023-02-17T07:43:07;0.52;;;0.52;;
24229;SDS011;12362;50.004;8.006;2023-02-17T07:45:36;2.63;;;0.82;;
24229;SDS011;12362;50.004;8.006;2023-02-17T07:48:02;0.32;;;0.32;;
24229;SDS011;12362;50.004;8.006;2023-02-17T07:50:31;1.08;;;0.43;;
24229;SDS011;12362;50.004;8.006;2023-02-17T07:53:00;0.63;;;0.35;;
24229;SDS011;12362;50.004;8.006;2023-02-17T07:55:43;0.90;;;0.40;;
24229;SDS011;12362;50.004;8.006;2023-02-17T07:58:09;0.10;;;0.10;;
24229;SDS011;12362;50.004;8.006;2023-02-17T08:00:37;0.52;;;0.40;;
24229;SDS011;12362;50.004;8.006;2023-02-17T08:03:05;1.40;;;0.40;;
24229;SDS011;12362;50.004;8.006;2023-02-17T08:05:37;0.30;;;0.30;;
24229;SDS011;12362;50.004;8.006;2023-02-17T08:08:08;0.45;;;0.25;;
24229;SDS011;12362;50.004;8.006;2023-02-17T08:10:52;1.35;;;0.50;;
24229;SDS011;12362;50.004;8.006;2023-02-17T08:13:37;2.00;;;1.23;;
24229;SDS011;12362;50.004;8.006;2023-02-17T08:16:03;0.63;;;0.63;;
24229;SDS011;12362;50.004;8.006;2023-02-17T08:18:40;0.30;;;0.30;;
24229;SDS011;12362;50.004;8.006;2023-02-17T08:21:06;1.65;;;0.50;;
24229;SDS011;12362;50.004;8.006;2023-02-17T08:23:32;1.35;;;0.40;;
24229;SDS011;12362;50.004;8.006;2023-02-17T08:25:59;0.70;;;0.55;;
24229;SDS011;12362;50.004;8.006;2023-02-17T08:28:25;0.28;;;0.22;;
24229;SDS011;12362;50.004;8.006;2023-02-17T08:30:51;2.25;;;0.57;;
24229;SDS011;12362;50.004;8.006;2023-02-17T08:33:16;1.08;;;0.52;;
24229;SDS011;12362;50.004;8.006;2023-02-17T08:35:43;0.40;;;0.40;;
24229;SDS011;12362;50.004;8.006;2023-02-17T08:38:13;1.77;;;0.55;;
24229;SDS011;12362;50.004;8.006;2023-02-17T08:40:38;0.63;;;0.40;;
24229;SDS011;12362;50.004;8.006;2023-02-17T08:43:06;1.95;;;0.70;;
24229;SDS011;12362;50.004;8.006;2023-02-17T08:45:34;0.30;;;0.30;;
24229;SDS011;12362;50.004;8.006;2023-02-17T08:48:01;0.70;;;0.70;;
24229;SDS011;12362;50.004;8.006;2023-02-17T08:50:30;1.02;;;0.45;;
24229;SDS011;12362;50.004;8.006;2023-02-17T08:52:57;2.67;;;0.47;;
24229;SDS011;12362;50.004;8.006;2023-02-17T08:55:23;2.38;;;0.73;;
24229;SDS011;12362;50.004;8.006;2023-02-17T08:57:49;0.75;;;0.38;;
24229;SDS011;12362;50.004;8.006;2023-02-17T09:00:15;0.30;;;0.30;;
24229;SDS011;12362;50.004;8.006;2023-02-17T09:02:41;1.80;;;0.40;;
24229;SDS011;12362;50.004;8.006;2023-02-17T09:05:12;0.32;;;0.30;;
24229;SDS011;12362;50.004;8.006;2023-02-17T09:07:39;0.85;;;0.60;;
24229;SDS011;12362;50.004;8.006;2023-02-17T09:10:05;0.63;;;0.55;;
24229;SDS011;12362;50.004;8.006;2023-02-17T09:12:32;0.57;;;0.52;;
24229;SDS011;12362;50.004;8.006;2023-02-17T09:14:58;0.45;;;0.40;;
24229;SDS011;12362;50.004;8.006;2023-02-17T09:17:24;0.50;;;0.50;;
24229;SDS011;12362;50.004;8.006;2023-02-17T09:19:49;0.93;;;0.57;;
24229;SDS011;12362;50.004;8.006;2023-02-17T09:22:15;1.00;;;0.65;;
24229;SDS011;12362;50.004;8.006;2023-02-17T09:24:42;0.65;;;0.43;;
24229;SDS011;12362;50.004;8.006;2023-02-17T09:27:08;0.50;;;0.45;;
24229;SDS011;12362;50.004;8.006;2023-02-17T09:29:35;0.63;;;0.63;;
24229;SDS011;12362;50.004;8.006;2023-02-17T09:32:05;0.50;;;0.50;;
24229;SDS011;12362;50.004;8.006;2023-02-17T09:34:36;1.33;;;0.40;;
24229;SDS011;12362;50.004;8.006;2023-02-17T09:37:02;1.08;;;0.60;;
24229;SDS011;12362;50.004;8.006;2023-02-17T09:39:28;0.20;;;0.20;;
24229;SDS011;12362;50.004;8.006;2023-02-17T09:41:53;0.35;;;0.30;;
24229;SDS011;12362;50.004;8.006;2023-02-17T09:44:21;0.30;;;0.30;;
24229;SDS011;12362;50.004;8.006;2023-02-17T09:47:00;0.70;;;0.70;;
24229;SDS011;12362;50.004;8.006;2023-02-17T09:49:31;2.63;;;0.70;;
24229;SDS011;12362;50.004;8.006;2023-02-17T09:52:13;0.25;;;0.22;;
24229;SDS011;12362;50.004;8.006;2023-02-17T09:55:05;0.45;;;0.45;;
24229;SDS011;12362;50.004;8.006;2023-02-17T10:00:56;0.30;;;0.30;;
24229;SDS011;12362;50.004;8.006;2023-02-17T10:06:27;0.28;;;0.28;;
24229;SDS011;12362;50.004;8.006;2023-02-17T10:08:59;0.13;;;0.13;;
24229;SDS011;12362;50.004;8.006;2023-02-17T10:11:32;0.95;;;0.38;;
24229;SDS011;12362;50.004;8.006;2023-02-17T10:14:20;0.17;;;0.17;;
24229;SDS011;12362;50.004;8.006;2023-02-17T10:22:24;0.10;;;0.10;;
24229;SDS011;12362;50.004;8.006;2023-02-17T10:24:51;0.70;;;0.35;;
24229;SDS011;12362;50.004;8.006;2023-02-17T10:27:27;0.30;;;0.22;;
24229;SDS011;12362;50.004;8.006;2023-02-17T10:32:58;0.28;;;0.22;;
24229;SDS011;12362;50.004;8.006;2023-02-17T10:35:42;0.45;;;0.40;;
24229;SDS011;12362;50.004;8.006;2023-02-17T10:41:00;0.00;;;0.00;;
24229;SDS011;12362;50.004;8.006;2023-02-17T10:43:29;0.10;;;0.10;;
24229;SDS011;12362;50.004;8.006;2023-02-17T10:45:58;0.35;;;0.35;;
24229;SDS011;12362;50.004;8.006;2023-02-17T10:48:30;0.82;;;0.38;;
24229;SDS011;12362;50.004;8.006;2023-02-17T10:51:00;0.10;;;0.10;;
24229;SDS011;12362;50.004;8.006;2023-02-17T10:53:36;1.02;;;0.30;;
24229;SDS011;12362;50.004;8.006;2023-02-17T10:56:11;0.43;;;0.30;;
24229;SDS011;12362;50.004;8.006;2023-02-17T11:01:30;0.80;;;0.10;;
24229;SDS011;12362;50.004;8.006;2023-02-17T11:03:58;0.20;;;0.20;;
24229;SDS011;12362;50.004;8.006;2023-02-17T11:06:26;1.17;;;0.15;;
24229;SDS011;12362;50.004;8.006;2023-02-17T11:09:04;0.10;;;0.10;;
24229;SDS011;12362;50.004;8.006;2023-02-17T11:11:36;0.25;;;0.22;;
24229;SDS011;12362;50.004;8.006;2023-02-17T11:16:51;0.10;;;0.10;;
24229;SDS011;12362;50.004;8.006;2023-02-17T11:19:28;0.10;;;0.10;;
24229;SDS011;12362;50.004;8.006;2023-02-17T11:21:56;0.20;;;0.10;;
24229;SDS011;12362;50.004;8.006;2023-02-17T11:24:23;0.68;;;0.20;;
24229;SDS011;12362;50.004;8.006;2023-02-17T11:27:03;0.10;;;0.10;;
24229;SDS011;12362;50.004;8.006;2023-02-17T11:29:33;0.20;;;0.10;;
24229;SDS011;12362;50.004;8.006;2023-02-17T11:32:02;0.10;;;0.10;;
24229;SDS011;12362;50.004;8.006;2023-02-17T11:34:31;0.70;;;0.32;;
24229;SDS011;12362;50.004;8.006;2023-02-17T11:37:21;0.40;;;0.40;;
24229;SDS011;12362;50.004;8.006;2023-02-17T11:39:48;0.10;;;0.10;;
24229;SDS011;12362;50.004;8.006;2023-02-17T11:44:57;0.00;;;0.00;;
24229;SDS011;12362;50.004;8.006;2023-02-17T11:52:53;0.10;;;0.10;;
24229;SDS011;12362;50.004;8.006;2023-02-17T11:55:39;0.10;;;0.10;;
24229;SDS011;12362;50.004;8.006;2023-02-17T12:03:59;0.35;;;0.28;;
24229;SDS011;12362;50.004;8.006;2023-02-17T12:06:38;0.20;;;0.20;;
24229;SDS011;12362;50.004;8.006;2023-02-17T12:09:11;0.10;;;0.10;;
24229;SDS011;12362;50.004;8.006;2023-02-17T12:17:13;0.13;;;0.13;;
24229;SDS011;12362;50.004;8.006;2023-02-17T12:20:04;0.28;;;0.20;;
24229;SDS011;12362;50.004;8.006;2023-02-17T12:22:36;0.10;;;0.10;;
24229;SDS011;12362;50.004;8.006;2023-02-17T12:25:36;0.10;;;0.10;;
24229;SDS011;12362;50.004;8.006;2023-02-17T12:36:29;0.40;;;0.40;;
24229;SDS011;12362;50.004;8.006;2023-02-17T12:39:04;1.75;;;0.20;;
24229;SDS011;12362;50.004;8.006;2023-02-17T12:41:40;3.15;;;1.08;;
24229;SDS011;12362;50.004;8.006;2023-02-17T12:44:12;1.17;;;0.50;;
24229;SDS011;12362;50.004;8.006;2023-02-17T12:46:41;0.17;;;0.17;;
24229;SDS011;12362;50.004;8.006;2023-02-17T12:49:18;0.20;;;0.20;;
24229;SDS011;12362;50.004;8.006;2023-02-17T12:51:50;0.20;;;0.20;;
24229;SDS011;12362;50.004;8.006;2023-02-17T12:54:22;0.00;;;0.00;;
24229;SDS011;12362;50.004;8.006;2023-02-17T13:02:06;0.10;;;0.10;;
24229;SDS011;12362;50.004;8.006;2023-02-17T13:04:37;0.10;;;0.10;;
24229;SDS011;12362;50.004;8.006;2023-02-17T13:07:14;0.10;;;0.10;;
24229;SDS011;12362;50.004;8.006;2023-02-17T13:10:04;0.10;;;0.10;;
24229;SDS011;12362;50.004;8.006;2023-02-17T13:12:35;1.20;;;0.38;;
24229;SDS011;12362;50.004;8.006;2023-02-17T13:17:55;0.08;;;0.08;;
24229;SDS011;12362;50.004;8.006;2023-02-17T13:20:37;0.30;;;0.15;;
24229;SDS011;12362;50.004;8.006;2023-02-17T13:23:26;0.10;;;0.10;;
24229;SDS011;12362;50.004;8.006;2023-02-17T13:26:12;0.00;;;0.00;;
24229;SDS011;12362;50.004;8.006;2023-02-17T13:28:49;0.40;;;0.25;;
24229;SDS011;12362;50.004;8.006;2023-02-17T13:31:21;0.03;;;0.03;;
24229;SDS011;12362;50.004;8.006;2023-02-17T13:33:55;0.10;;;0.10;;
24229;SDS011;12362;50.004;8.006;2023-02-17T13:38:55;0.55;;;0.22;;
24229;SDS011;12362;50.004;8.006;2023-02-17T13:41:26;0.00;;;0.00;;
24229;SDS011;12362;50.004;8.006;2023-02-17T13:44:24;0.13;;;0.13;;
24229;SDS011;12362;50.004;8.006;2023-02-17T13:46:53;0.10;;;0.10;;
24229;SDS011;12362;50.004;8.006;2023-02-17T13:49:25;0.10;;;0.10;;
24229;SDS011;12362;50.004;8.006;2023-02-17T13:51:52;0.10;;;0.10;;
24229;SDS011;12362;50.004;8.006;2023-02-17T13:54:20;0.10;;;0.10;;
24229;SDS011;12362;50.004;8.006;2023-02-17T13:56:51;0.10;;;0.10;;
24229;SDS011;12362;50.004;8.006;2023-02-17T13:59:22;0.10;;;0.10;;
24229;SDS011;12362;50.004;8.006;2023-02-17T14:01:50;0.85;;;0.20;;
24229;SDS011;12362;50.004;8.006;2023-02-17T14:04:22;0.05;;;0.05;;
24229;SDS011;12362;50.004;8.006;2023-02-17T14:06:51;0.05;;;0.05;;
24229;SDS011;12362;50.004;8.006;2023-02-17T14:11:52;0.17;;;0.10;;
24229;SDS011;12362;50.004;8.006;2023-02-17T14:14:21;0.10;;;0.10;;
24229;SDS011;12362;50.004;8.006;2023-02-17T14:16:57;0.10;;;0.10;;
24229;SDS011;12362;50.004;8.006;2023-02-17T14:19:41;0.25;;;0.20;;
24229;SDS011;12362;50.004;8.006;2023-02-17T14:25:10;0.00;;;0.00;;
24229;SDS011;12362;50.004;8.006;2023-02-17T14:27:46;0.43;;;0.43;;
24229;SDS011;12362;50.004;8.006;2023-02-17T14:35:57;0.40;;;0.22;;
24229;SDS011;12362;50.004;8.006;2023-02-17T14:38:26;0.45;;;0.38;;
24229;SDS011;12362;50.004;8.006;2023-02-17T14:40:56;0.55;;;0.30;;
24229;SDS011;12362;50.004;8.006;2023-02-17T14:43:23;0.20;;;0.20;;
24229;SDS011;12362;50.004;8.006;2023-02-17T14:45:49;0.00;;;0.00;;
24229;SDS011;12362;50.004;8.006;2023-02-17T14:48:18;0.00;;;0.00;;
24229;SDS011;12362;50.004;8.006;2023-02-17T14:50:44;0.88;;;0.77;;
24229;SDS011;12362;50.004;8.006;2023-02-17T14:53:12;3.50;;;0.80;;
24229;SDS011;12362;50.004;8.006;2023-02-17T14:55:45;1.35;;;1.02;;
24229;SDS011;12362;50.004;8.006;2023-02-17T14:58:18;0.25;;;0.25;;
24229;SDS011;12362;50.004;8.006;2023-02-17T15:00:46;0.47;;;0.47;;
24229;SDS011;12362;50.004;8.006;2023-02-17T15:03:13;3.05;;;0.73;;
24229;SDS011;12362;50.004;8.006;2023-02-17T15:05:38;0.10;;;0.10;;
24229;SDS011;12362;50.004;8.006;2023-02-17T15:08:04;0.32;;;0.17;;
24229;SDS011;12362;50.004;8.006;2023-02-17T15:10:30;0.20;;;0.20;;
24229;SDS011;12362;50.004;8.006;2023-02-17T15:12:56;0.30;;;0.10;;
24229;SDS011;12362;50.004;8.006;2023-02-17T15:15:21;0.40;;;0.32;;
24229;SDS011;12362;50.004;8.006;2023-02-17T15:17:47;0.25;;;0.25;;
24229;SDS011;12362;50.004;8.006;2023-02-17T15:20:14;0.10;;;0.10;;
24229;SDS011;12362;50.004;8.006;2023-02-17T15:22:40;0.10;;;0.10;;
24229;SDS011;12362;50.004;8.006;2023-02-17T15:25:15;0.10;;;0.10;;
24229;SDS011;12362;50.004;8.006;2023-02-17T15:27:43;0.28;;;0.10;;
24229;SDS011;12362;50.004;8.006;2023-02-17T15:30:10;0.10;;;0.10;;
24229;SDS011;12362;50.004;8.006;2023-02-17T15:32:38;0.20;;;0.20;;
24229;SDS011;12362;50.004;8.006;2023-02-17T15:35:12;0.20;;;0.20;;
24229;SDS011;12362;50.004;8.006;2023-02-17T15:37:38;0.10;;;0.10;;
24229;SDS011;12362;50.004;8.006;2023-02-17T15:40:04;0.10;;;0.10;;
24229;SDS011;12362;50.004;8.006;2023-02-17T15:42:30;0.10;;;0.10;;
24229;SDS011;12362;50.004;8.006;2023-02-17T15:44:56;0.43;;;0.20;;
24229;SDS011;12362;50.004;8.006;2023-02-17T15:47:21;0.10;;;0.10;;
24229;SDS011;12362;50.004;8.006;2023-02-17T15:49:47;0.10;;;0.10;;
24229;SDS011;12362;50.004;8.006;2023-02-17T15:52:13;4.20;;;0.98;;
24229;SDS011;12362;50.004;8.006;2023-02-17T15:54:39;2.10;;;0.77;;
24229;SDS011;12362;50.004;8.006;2023-02-17T15:57:16;4.57;;;1.48;;
24229;SDS011;12362;50.004;8.006;2023-02-17T15:59:46;0.10;;;0.10;;
24229;SDS011;12362;50.004;8.006;2023-02-17T16:02:16;6.25;;;1.48;;
24229;SDS011;12362;50.004;8.006;2023-02-17T16:04:45;5.32;;;1.40;;
24229;SDS011;12362;50.004;8.006;2023-02-17T16:07:11;0.55;;;0.55;;
24229;SDS011;12362;50.004;8.006;2023-02-17T16:09:36;0.40;;;0.22;;
24229;SDS011;12362;50.004;8.006;2023-02-17T16:12:02;3.13;;;0.82;;
24229;SDS011;12362;50.004;8.006;2023-02-17T16:14:35;5.32;;;1.38;;
24229;SDS011;12362;50.004;8.006;2023-02-17T16:17:02;5.25;;;1.42;;
24229;SDS011;12362;50.004;8.006;2023-02-17T16:19:29;8.43;;;1.33;;
24229;SDS011;12362;50.004;8.006;2023-02-17T16:21:55;1.05;;;0.82;;
24229;SDS011;12362;50.004;8.006;2023-02-17T16:24:21;0.65;;;0.43;;
24229;SDS011;12362;50.004;8.006;2023-02-17T16:26:46;0.30;;;0.30;;
24229;SDS011;12362;50.004;8.006;2023-02-17T16:29:15;0.25;;;0.10;;
24229;SDS011;12362;50.004;8.006;2023-02-17T16:31:43;0.13;;;0.13;;
24229;SDS011;12362;50.004;8.006;2023-02-17T16:34:13;1.55;;;0.73;;
24229;SDS011;12362;50.004;8.006;2023-02-17T16:37:01;0.17;;;0.17;;
24229;SDS011;12362;50.004;8.006;2023-02-17T16:39:28;5.93;;;0.82;;
24229;SDS011;12362;50.004;8.006;2023-02-17T16:41:53;3.55;;;1.77;;
24229;SDS011;12362;50.004;8.006;2023-02-17T16:44:19;1.75;;;1.30;;
24229;SDS011;12362;50.004;8.006;2023-02-17T16:46:52;0.10;;;0.10;;
24229;SDS011;12362;50.004;8.006;2023-02-17T16:49:23;0.40;;;0.40;;
24229;SDS011;12362;50.004;8.006;2023-02-17T16:51:57;1.02;;;0.30;;
24229;SDS011;12362;50.004;8.006;2023-02-17T16:54:24;2.58;;;1.00;;
24229;SDS011;12362;50.004;8.006;2023-02-17T16:56:49;0.88;;;0.20;;
24229;SDS011;12362;50.004;8.006;2023-02-17T16:59:17;1.65;;;0.45;;
24229;SDS011;12362;50.004;8.006;2023-02-17T17:01:45;0.30;;;0.30;;
24229;SDS011;12362;50.004;8.006;2023-02-17T17:04:15;0.20;;;0.20;;